Terminal Aerodrome Forecast
Issued by NWS Dodge City, KS

Home | Current Version | Previous Version | Text Only | Print | Product List | Glossary On
Versions: 1 2 3 4 5 6 7 8 9 10 11 12 13 14 15 16 17 18 19 20 21 22 23 24 25 26 27 28 29 30 31 32 33 34 35 36 37 38 39 40 41
586
FTUS43 KDDC 211424 AAB
TAFDDC
TAF AMD
KDDC 211424Z 2114/2212 04008KT 3/4SM BR VCSH OVC002
     FM211600 05010KT P6SM VCSH OVC008
     FM211800 03011G17KT P6SM OVC010=

USA.gov is the U.S. government's official web portal to all federal, state and local government web resources and services.